sensor_id;sensor_type;location;lat;lon;timestamp;pressure;altitude;pressure_sealevel;temperature;humidity
51259;BME280;37327;54.254;18.504;2023-02-28T00:02:16;102552.25;;;-5.62;99.29
51259;BME280;37327;54.254;18.504;2023-02-28T00:05:32;102556.68;;;-5.64;99.27
51259;BME280;37327;54.254;18.504;2023-02-28T00:08:46;102553.25;;;-5.69;99.29
51259;BME280;37327;54.254;18.504;2023-02-28T00:12:01;102558.64;;;-5.77;99.36
51259;BME280;37327;54.254;18.504;2023-02-28T00:15:24;102560.52;;;-5.83;99.34
51259;BME280;37327;54.254;18.504;2023-02-28T00:19:04;102558.86;;;-5.89;99.38
51259;BME280;37327;54.254;18.504;2023-02-28T00:22:20;102561.59;;;-5.93;99.40
51259;BME280;37327;54.254;18.504;2023-02-28T00:25:35;102556.25;;;-5.90;99.66
51259;BME280;37327;54.254;18.504;2023-02-28T00:28:51;102562.35;;;-5.88;99.76
51259;BME280;37327;54.254;18.504;2023-02-28T00:32:07;102570.20;;;-5.85;99.76
51259;BME280;37327;54.254;18.504;2023-02-28T00:35:21;102564.97;;;-5.87;99.77
51259;BME280;37327;54.254;18.504;2023-02-28T00:38:37;102575.48;;;-5.87;99.80
51259;BME280;37327;54.254;18.504;2023-02-28T00:41:51;102579.82;;;-5.84;99.92
51259;BME280;37327;54.254;18.504;2023-02-28T00:45:07;102587.78;;;-5.87;99.69
51259;BME280;37327;54.254;18.504;2023-02-28T00:48:21;102580.79;;;-5.90;99.59
51259;BME280;37327;54.254;18.504;2023-02-28T00:51:36;102582.55;;;-5.90;99.72
51259;BME280;37327;54.254;18.504;2023-02-28T00:55:16;102582.55;;;-5.90;99.65
51259;BME280;37327;54.254;18.504;2023-02-28T00:58:32;102594.88;;;-5.92;99.77
51259;BME280;37327;54.254;18.504;2023-02-28T01:01:47;102589.75;;;-5.99;99.47
51259;BME280;37327;54.254;18.504;2023-02-28T01:05:02;102594.16;;;-6.01;99.55
51259;BME280;37327;54.254;18.504;2023-02-28T01:08:43;102589.87;;;-6.08;99.60
51259;BME280;37327;54.254;18.504;2023-02-28T01:11:57;102599.63;;;-6.14;99.52
51259;BME280;37327;54.254;18.504;2023-02-28T01:15:14;102585.64;;;-6.17;99.65
51259;BME280;37327;54.254;18.504;2023-02-28T01:18:28;102595.25;;;-6.16;99.86
51259;BME280;37327;54.254;18.504;2023-02-28T01:22:09;102578.61;;;-6.16;99.81
51259;BME280;37327;54.254;18.504;2023-02-28T01:25:24;102586.51;;;-6.16;99.80
51259;BME280;37327;54.254;18.504;2023-02-28T01:28:38;102582.21;;;-6.23;99.57
51259;BME280;37327;54.254;18.504;2023-02-28T01:31:52;102581.38;;;-6.25;99.59
51259;BME280;37327;54.254;18.504;2023-02-28T01:35:34;102581.36;;;-6.24;99.80
51259;BME280;37327;54.254;18.504;2023-02-28T01:38:49;102581.36;;;-6.24;99.90
51259;BME280;37327;54.254;18.504;2023-02-28T01:42:04;102565.56;;;-6.22;99.92
51259;BME280;37327;54.254;18.504;2023-02-28T01:49:17;102565.55;;;-6.21;99.84
51259;BME280;37327;54.254;18.504;2023-02-28T01:52:33;102568.13;;;-6.19;99.90
51259;BME280;37327;54.254;18.504;2023-02-28T01:55:51;102562.00;;;-6.18;99.90
51259;BME280;37327;54.254;18.504;2023-02-28T01:59:07;102564.61;;;-6.17;99.83
51259;BME280;37327;54.254;18.504;2023-02-28T02:02:50;102566.34;;;-6.17;99.87
51259;BME280;37327;54.254;18.504;2023-02-28T02:06:06;102568.98;;;-6.17;99.95
51259;BME280;37327;54.254;18.504;2023-02-28T02:09:20;102555.81;;;-6.16;100.00
51259;BME280;37327;54.254;18.504;2023-02-28T02:30:43;102553.26;;;-6.20;99.72
51259;BME280;37327;54.254;18.504;2023-02-28T02:37:47;102546.57;;;-6.41;99.19
51259;BME280;37327;54.254;18.504;2023-02-28T02:44:31;102559.51;;;-6.29;100.00
51259;BME280;37327;54.254;18.504;2023-02-28T02:48:26;102559.45;;;-6.23;100.00
51259;BME280;37327;54.254;18.504;2023-02-28T02:51:41;102562.82;;;-6.14;100.00
51259;BME280;37327;54.254;18.504;2023-02-28T02:54:59;102562.80;;;-6.13;100.00
51259;BME280;37327;54.254;18.504;2023-02-28T02:58:17;102565.38;;;-6.11;100.00
51259;BME280;37327;54.254;18.504;2023-02-28T03:01:35;102566.28;;;-6.12;100.00
51259;BME280;37327;54.254;18.504;2023-02-28T03:05:25;102569.88;;;-6.18;100.00
51259;BME280;37327;54.254;18.504;2023-02-28T03:08:40;102572.55;;;-6.21;100.00
51259;BME280;37327;54.254;18.504;2023-02-28T03:11:56;102575.24;;;-6.24;100.00
51259;BME280;37327;54.254;18.504;2023-02-28T03:15:19;102588.39;;;-6.24;100.00
51259;BME280;37327;54.254;18.504;2023-02-28T03:18:43;102577.06;;;-6.29;100.00
51259;BME280;37327;54.254;18.504;2023-02-28T03:25:56;102591.14;;;-6.33;100.00
51259;BME280;37327;54.254;18.504;2023-02-28T03:29:21;102591.14;;;-6.33;100.00
51259;BME280;37327;54.254;18.504;2023-02-28T03:36:39;102584.20;;;-6.38;100.00
51259;BME280;37327;54.254;18.504;2023-02-28T03:40:04;102593.02;;;-6.42;100.00
51259;BME280;37327;54.254;18.504;2023-02-28T03:44:00;102577.32;;;-6.46;100.00
51259;BME280;37327;54.254;18.504;2023-02-28T03:47:22;102583.53;;;-6.52;100.00
51259;BME280;37327;54.254;18.504;2023-02-28T03:50:44;102590.56;;;-6.54;100.00
51259;BME280;37327;54.254;18.504;2023-02-28T03:54:09;102587.15;;;-6.62;100.00
51259;BME280;37327;54.254;18.504;2023-02-28T04:04:46;102577.45;;;-6.57;100.00
51259;BME280;37327;54.254;18.504;2023-02-28T04:08:08;102580.95;;;-6.57;100.00
51259;BME280;37327;54.254;18.504;2023-02-28T04:11:32;102583.59;;;-6.58;100.00
51259;BME280;37327;54.254;18.504;2023-02-28T04:15:15;102573.17;;;-6.64;100.00
51259;BME280;37327;54.254;18.504;2023-02-28T04:18:29;102580.19;;;-6.65;100.00
51259;BME280;37327;54.254;18.504;2023-02-28T04:21:46;102579.34;;;-6.65;100.00
51259;BME280;37327;54.254;18.504;2023-02-28T04:25:00;102583.68;;;-6.64;100.00
51259;BME280;37327;54.254;18.504;2023-02-28T04:28:15;102587.22;;;-6.65;100.00
51259;BME280;37327;54.254;18.504;2023-02-28T04:31:56;102593.31;;;-6.63;100.00
51259;BME280;37327;54.254;18.504;2023-02-28T04:35:13;102580.16;;;-6.62;100.00
51259;BME280;37327;54.254;18.504;2023-02-28T04:38:28;102585.38;;;-6.60;100.00
51259;BME280;37327;54.254;18.504;2023-02-28T04:41:42;102580.16;;;-6.62;100.00
51259;BME280;37327;54.254;18.504;2023-02-28T04:45:22;102567.03;;;-6.62;100.00
51259;BME280;37327;54.254;18.504;2023-02-28T04:48:37;102565.26;;;-6.61;100.00
51259;BME280;37327;54.254;18.504;2023-02-28T04:51:52;102573.06;;;-6.57;100.00
51259;BME280;37327;54.254;18.504;2023-02-28T04:55:10;102576.59;;;-6.56;100.00
51259;BME280;37327;54.254;18.504;2023-02-28T04:58:24;102575.67;;;-6.55;100.00
51259;BME280;37327;54.254;18.504;2023-02-28T05:01:39;102578.22;;;-6.50;100.00
51259;BME280;37327;54.254;18.504;2023-02-28T05:04:54;102572.09;;;-6.48;100.00
51259;BME280;37327;54.254;18.504;2023-02-28T05:08:08;102572.87;;;-6.43;100.00
51259;BME280;37327;54.254;18.504;2023-02-28T05:11:25;102578.95;;;-6.39;100.00
51259;BME280;37327;54.254;18.504;2023-02-28T05:15:15;102576.21;;;-6.31;100.00
51259;BME280;37327;54.254;18.504;2023-02-28T05:18:30;102578.84;;;-6.31;100.00
51259;BME280;37327;54.254;18.504;2023-02-28T05:21:51;102578.95;;;-6.39;100.00
51259;BME280;37327;54.254;18.504;2023-02-28T05:25:33;102578.97;;;-6.41;100.00
51259;BME280;37327;54.254;18.504;2023-02-28T05:28:48;102576.32;;;-6.39;100.00
51259;BME280;37327;54.254;18.504;2023-02-28T05:32:02;102575.41;;;-6.37;100.00
51259;BME280;37327;54.254;18.504;2023-02-28T05:35:17;102581.47;;;-6.31;100.00
51259;BME280;37327;54.254;18.504;2023-02-28T05:38:57;102585.77;;;-6.26;100.00
51259;BME280;37327;54.254;18.504;2023-02-28T05:42:12;102593.68;;;-6.27;100.00
51259;BME280;37327;54.254;18.504;2023-02-28T05:45:26;102584.18;;;-6.36;100.00
51259;BME280;37327;54.254;18.504;2023-02-28T05:48:45;102581.60;;;-6.41;100.00
51259;BME280;37327;54.254;18.504;2023-02-28T05:52:25;102577.19;;;-6.39;100.00
51259;BME280;37327;54.254;18.504;2023-02-28T05:55:39;102571.80;;;-6.29;100.00
51259;BME280;37327;54.254;18.504;2023-02-28T05:58:55;102571.70;;;-6.23;100.00
51259;BME280;37327;54.254;18.504;2023-02-28T06:02:14;102574.23;;;-6.17;100.00
51259;BME280;37327;54.254;18.504;2023-02-28T06:05:54;102567.14;;;-6.10;100.00
51259;BME280;37327;54.254;18.504;2023-02-28T06:09:09;102567.05;;;-6.06;100.00
51259;BME280;37327;54.254;18.504;2023-02-28T06:12:23;102570.42;;;-5.98;100.00
51259;BME280;37327;54.254;18.504;2023-02-28T06:15:37;102568.45;;;-5.86;100.00
51259;BME280;37327;54.254;18.504;2023-02-28T06:19:17;102561.94;;;-5.64;100.00
51259;BME280;37327;54.254;18.504;2023-02-28T06:22:32;102566.71;;;-5.38;100.00
51259;BME280;37327;54.254;18.504;2023-02-28T06:25:47;102563.87;;;-5.25;100.00
51259;BME280;37327;54.254;18.504;2023-02-28T06:29:03;102568.09;;;-5.18;100.00
51259;BME280;37327;54.254;18.504;2023-02-28T06:32:42;102571.52;;;-5.13;100.00
51259;BME280;37327;54.254;18.504;2023-02-28T06:35:57;102567.91;;;-5.07;100.00
51259;BME280;37327;54.254;18.504;2023-02-28T06:39:11;102568.63;;;-5.01;99.95
51259;BME280;37327;54.254;18.504;2023-02-28T06:42:29;102572.89;;;-4.93;99.87
51259;BME280;37327;54.254;18.504;2023-02-28T07:18:39;102561.31;;;-1.66;92.44
51259;BME280;37327;54.254;18.504;2023-02-28T07:21:56;102557.45;;;-1.82;92.57
51259;BME280;37327;54.254;18.504;2023-02-28T07:25:14;102562.18;;;-1.92;93.13
51259;BME280;37327;54.254;18.504;2023-02-28T07:28:32;102561.48;;;-1.97;93.45
51259;BME280;37327;54.254;18.504;2023-02-28T07:31:50;102561.57;;;-2.00;93.73
51259;BME280;37327;54.254;18.504;2023-02-28T07:35:09;102571.27;;;-1.99;93.99
51259;BME280;37327;54.254;18.504;2023-02-28T07:38:27;102572.12;;;-1.99;94.08
51259;BME280;37327;54.254;18.504;2023-02-28T07:41:44;102565.89;;;-1.97;94.10
51259;BME280;37327;54.254;18.504;2023-02-28T07:45:02;102572.00;;;-1.95;94.14
51259;BME280;37327;54.254;18.504;2023-02-28T07:48:20;102580.71;;;-1.92;94.26
51259;BME280;37327;54.254;18.504;2023-02-28T07:51:37;102585.88;;;-1.87;94.23
51259;BME280;37327;54.254;18.504;2023-02-28T07:54:54;102585.42;;;-1.73;94.52
51259;BME280;37327;54.254;18.504;2023-02-28T07:58:11;102580.66;;;-1.13;96.79
51259;BME280;37327;54.254;18.504;2023-02-28T08:01:29;102578.95;;;-0.44;95.61
51259;BME280;37327;54.254;18.504;2023-02-28T08:04:46;102572.44;;;-0.13;93.01
51259;BME280;37327;54.254;18.504;2023-02-28T08:08:05;102574.48;;;0.03;91.95
51259;BME280;37327;54.254;18.504;2023-02-28T08:11:24;102569.97;;;0.25;91.51
51259;BME280;37327;54.254;18.504;2023-02-28T08:14:41;102560.91;;;0.51;90.63
51259;BME280;37327;54.254;18.504;2023-02-28T08:17:58;102552.17;;;0.68;89.51
51259;BME280;37327;54.254;18.504;2023-02-28T08:21:16;102548.34;;;0.75;88.66
51259;BME280;37327;54.254;18.504;2023-02-28T08:24:34;102543.81;;;0.77;88.09
51259;BME280;37327;54.254;18.504;2023-02-28T08:27:51;102540.73;;;0.87;88.30
51259;BME280;37327;54.254;18.504;2023-02-28T08:31:11;102537.83;;;1.12;88.40
51259;BME280;37327;54.254;18.504;2023-02-28T08:34:30;102533.45;;;1.49;87.93
51259;BME280;37327;54.254;18.504;2023-02-28T08:37:50;102528.04;;;1.87;87.98
51259;BME280;37327;54.254;18.504;2023-02-28T08:41:09;102522.22;;;2.15;86.51
51259;BME280;37327;54.254;18.504;2023-02-28T08:44:27;102521.12;;;2.36;85.39
51259;BME280;37327;54.254;18.504;2023-02-28T08:47:45;102527.73;;;2.63;84.00
51259;BME280;37327;54.254;18.504;2023-02-28T08:51:08;102518.53;;;2.86;83.38
51259;BME280;37327;54.254;18.504;2023-02-28T08:54:26;102524.95;;;3.31;82.67
51259;BME280;37327;54.254;18.504;2023-02-28T08:57:47;102521.42;;;3.62;81.97
51259;BME280;37327;54.254;18.504;2023-02-28T09:01:12;102517.08;;;3.91;80.16
51259;BME280;37327;54.254;18.504;2023-02-28T09:04:30;102520.20;;;4.14;78.35
51259;BME280;37327;54.254;18.504;2023-02-28T09:07:47;102515.00;;;4.27;77.36
51259;BME280;37327;54.254;18.504;2023-02-28T09:11:07;102519.21;;;4.31;77.19
51259;BME280;37327;54.254;18.504;2023-02-28T09:14:24;102520.57;;;4.38;75.25
51259;BME280;37327;54.254;18.504;2023-02-28T09:17:42;102524.46;;;4.32;74.89
51259;BME280;37327;54.254;18.504;2023-02-28T09:20:59;102526.11;;;4.05;73.78
51259;BME280;37327;54.254;18.504;2023-02-28T09:24:19;102525.26;;;4.04;74.90
51259;BME280;37327;54.254;18.504;2023-02-28T09:27:37;102534.29;;;4.02;73.49
51259;BME280;37327;54.254;18.504;2023-02-28T09:30:55;102534.70;;;4.10;73.53
51259;BME280;37327;54.254;18.504;2023-02-28T09:34:15;102537.29;;;4.11;73.50
51259;BME280;37327;54.254;18.504;2023-02-28T09:37:34;102535.53;;;4.26;72.68
51259;BME280;37327;54.254;18.504;2023-02-28T09:40:54;102535.77;;;4.38;72.41
51259;BME280;37327;54.254;18.504;2023-02-28T09:47:45;102534.94;;;4.51;70.93
51259;BME280;37327;54.254;18.504;2023-02-28T09:51:15;102540.34;;;4.35;69.36
51259;BME280;37327;54.254;18.504;2023-02-28T09:54:36;102536.48;;;4.25;69.54
51259;BME280;37327;54.254;18.504;2023-02-28T09:57:55;102541.91;;;4.24;69.91
51259;BME280;37327;54.254;18.504;2023-02-28T10:04:59;102531.04;;;4.27;68.75
51259;BME280;37327;54.254;18.504;2023-02-28T10:08:21;102525.46;;;4.46;68.45
51259;BME280;37327;54.254;18.504;2023-02-28T10:11:43;102521.27;;;4.56;67.33
51259;BME280;37327;54.254;18.504;2023-02-28T10:15:03;102514.39;;;4.66;67.00
51259;BME280;37327;54.254;18.504;2023-02-28T10:18:25;102523.35;;;4.51;64.98
51259;BME280;37327;54.254;18.504;2023-02-28T10:21:50;102524.11;;;4.53;65.73
51259;BME280;37327;54.254;18.504;2023-02-28T10:25:19;102519.91;;;4.49;65.37
51259;BME280;37327;54.254;18.504;2023-02-28T10:28:36;102516.09;;;4.53;65.46
51259;BME280;37327;54.254;18.504;2023-02-28T10:31:54;102517.45;;;4.60;65.34
51259;BME280;37327;54.254;18.504;2023-02-28T10:38:40;102518.51;;;4.72;65.51
51259;BME280;37327;54.254;18.504;2023-02-28T10:41:57;102512.30;;;4.86;65.66
51259;BME280;37327;54.254;18.504;2023-02-28T10:45:16;102506.85;;;5.02;64.83
51259;BME280;37327;54.254;18.504;2023-02-28T10:48:43;102508.46;;;5.19;64.45
51259;BME280;37327;54.254;18.504;2023-02-28T10:52:01;102506.71;;;5.32;62.67
51259;BME280;37327;54.254;18.504;2023-02-28T10:55:24;102508.05;;;5.39;62.26
51259;BME280;37327;54.254;18.504;2023-02-28T11:05:46;102491.28;;;6.04;62.34
51259;BME280;37327;54.254;18.504;2023-02-28T11:12:38;102497.78;;;6.27;60.38
51259;BME280;37327;54.254;18.504;2023-02-28T11:16:03;102489.72;;;6.27;59.42
51259;BME280;37327;54.254;18.504;2023-02-28T11:19:25;102487.70;;;6.31;59.37
51259;BME280;37327;54.254;18.504;2023-02-28T11:22:46;102490.25;;;6.32;57.68
51259;BME280;37327;54.254;18.504;2023-02-28T11:26:04;102488.02;;;6.39;58.01
51259;BME280;37327;54.254;18.504;2023-02-28T11:29:30;102497.25;;;6.61;58.55
51259;BME280;37327;54.254;18.504;2023-02-28T11:32:50;102476.10;;;6.82;58.34
51259;BME280;37327;54.254;18.504;2023-02-28T11:36:14;102477.00;;;7.06;57.93
51259;BME280;37327;54.254;18.504;2023-02-28T11:39:33;102471.52;;;7.21;56.97
51259;BME280;37327;54.254;18.504;2023-02-28T11:52:19;102455.43;;;6.95;54.72
51259;BME280;37327;54.254;18.504;2023-02-28T11:55:45;102449.56;;;6.90;54.91
51259;BME280;37327;54.254;18.504;2023-02-28T12:13:16;102428.00;;;6.40;54.65
51259;BME280;37327;54.254;18.504;2023-02-28T12:16:45;102420.63;;;6.31;55.30
51259;BME280;37327;54.254;18.504;2023-02-28T12:27:07;102428.03;;;5.87;55.26
51259;BME280;37327;54.254;18.504;2023-02-28T12:30:32;102420.74;;;5.77;55.69
51259;BME280;37327;54.254;18.504;2023-02-28T12:34:04;102417.36;;;5.60;55.68
51259;BME280;37327;54.254;18.504;2023-02-28T12:37:22;102425.27;;;5.49;55.61
51259;BME280;37327;54.254;18.504;2023-02-28T12:40:50;102419.77;;;5.38;55.95
51259;BME280;37327;54.254;18.504;2023-02-28T12:44:26;102425.80;;;5.27;56.33
51259;BME280;37327;54.254;18.504;2023-02-28T12:47:42;102415.80;;;5.16;56.14
51259;BME280;37327;54.254;18.504;2023-02-28T12:51:03;102411.89;;;5.07;56.56
51259;BME280;37327;54.254;18.504;2023-02-28T12:54:35;102420.33;;;5.01;56.76
51259;BME280;37327;54.254;18.504;2023-02-28T13:05:46;102412.70;;;4.95;57.59
51259;BME280;37327;54.254;18.504;2023-02-28T13:11:54;102402.84;;;4.95;57.64
51259;BME280;37327;54.254;18.504;2023-02-28T13:18:46;102393.29;;;4.91;57.79
51259;BME280;37327;54.254;18.504;2023-02-28T13:22:04;102407.44;;;4.93;58.24
51259;BME280;37327;54.254;18.504;2023-02-28T13:29:00;102398.91;;;5.01;58.22
51259;BME280;37327;54.254;18.504;2023-02-28T13:35:44;102387.48;;;4.85;58.27
51259;BME280;37327;54.254;18.504;2023-02-28T13:39:44;102385.35;;;4.90;58.42
51259;BME280;37327;54.254;18.504;2023-02-28T13:42:35;102382.58;;;4.91;58.96
51259;BME280;37327;54.254;18.504;2023-02-28T13:46:05;102374.64;;;4.90;58.76
51259;BME280;37327;54.254;18.504;2023-02-28T13:49:28;102377.99;;;4.93;58.85
51259;BME280;37327;54.254;18.504;2023-02-28T13:56:44;102367.95;;;4.97;59.15
51259;BME280;37327;54.254;18.504;2023-02-28T14:03:34;102367.76;;;5.00;58.94
51259;BME280;37327;54.254;18.504;2023-02-28T14:06:54;102370.45;;;5.00;59.18
51259;BME280;37327;54.254;18.504;2023-02-28T14:13:46;102363.58;;;4.96;59.13
51259;BME280;37327;54.254;18.504;2023-02-28T14:17:05;102355.82;;;4.91;58.87
51259;BME280;37327;54.254;18.504;2023-02-28T14:20:29;102354.22;;;4.74;58.70
51259;BME280;37327;54.254;18.504;2023-02-28T14:37:45;102336.14;;;4.37;59.78
51259;BME280;37327;54.254;18.504;2023-02-28T14:41:11;102346.07;;;4.34;59.88
51259;BME280;37327;54.254;18.504;2023-02-28T14:44:28;102341.02;;;4.30;60.06
51259;BME280;37327;54.254;18.504;2023-02-28T14:47:46;102343.88;;;4.27;60.00
51259;BME280;37327;54.254;18.504;2023-02-28T14:51:05;102342.06;;;4.13;60.06
51259;BME280;37327;54.254;18.504;2023-02-28T14:54:23;102339.02;;;4.05;60.69
51259;BME280;37327;54.254;18.504;2023-02-28T14:57:57;102333.46;;;3.93;60.87
51259;BME280;37327;54.254;18.504;2023-02-28T15:01:10;102345.66;;;3.83;61.28
51259;BME280;37327;54.254;18.504;2023-02-28T15:04:31;102340.70;;;3.77;61.16
51259;BME280;37327;54.254;18.504;2023-02-28T15:11:21;102341.78;;;3.59;61.15
51259;BME280;37327;54.254;18.504;2023-02-28T15:14:43;102335.08;;;3.51;61.43
51259;BME280;37327;54.254;18.504;2023-02-28T15:18:04;102332.01;;;3.43;61.81
51259;BME280;37327;54.254;18.504;2023-02-28T15:24:53;102322.23;;;3.28;62.32
51259;BME280;37327;54.254;18.504;2023-02-28T15:28:17;102324.49;;;3.20;62.90
51259;BME280;37327;54.254;18.504;2023-02-28T15:31:48;102317.62;;;3.15;63.28
51259;BME280;37327;54.254;18.504;2023-02-28T15:38:36;102322.13;;;2.99;63.21
51259;BME280;37327;54.254;18.504;2023-02-28T15:45:33;102326.44;;;2.86;63.82
51259;BME280;37327;54.254;18.504;2023-02-28T15:48:58;102325.05;;;2.79;64.25
51259;BME280;37327;54.254;18.504;2023-02-28T15:52:19;102332.64;;;2.70;64.45
51259;BME280;37327;54.254;18.504;2023-02-28T15:55:38;102327.73;;;2.63;64.90
51259;BME280;37327;54.254;18.504;2023-02-28T15:59:03;102324.56;;;2.56;65.22
51259;BME280;37327;54.254;18.504;2023-02-28T16:09:24;102300.99;;;2.32;66.11
51259;BME280;37327;54.254;18.504;2023-02-28T16:12:46;102309.40;;;2.25;66.45
51259;BME280;37327;54.254;18.504;2023-02-28T16:16:05;102298.19;;;2.18;66.62
51259;BME280;37327;54.254;18.504;2023-02-28T16:19:24;102299.38;;;2.12;66.87
51259;BME280;37327;54.254;18.504;2023-02-28T16:22:42;102308.75;;;2.04;67.33
51259;BME280;37327;54.254;18.504;2023-02-28T16:26:00;102309.22;;;1.94;67.46
51259;BME280;37327;54.254;18.504;2023-02-28T16:29:24;102313.15;;;1.87;67.42
51259;BME280;37327;54.254;18.504;2023-02-28T16:32:43;102314.44;;;1.80;67.54
51259;BME280;37327;54.254;18.504;2023-02-28T16:36:01;102314.59;;;1.77;67.80
51259;BME280;37327;54.254;18.504;2023-02-28T16:39:18;102306.00;;;1.72;67.83
51259;BME280;37327;54.254;18.504;2023-02-28T16:42:40;102299.26;;;1.65;68.02
51259;BME280;37327;54.254;18.504;2023-02-28T16:45:58;102293.48;;;1.56;68.51
51259;BME280;37327;54.254;18.504;2023-02-28T16:49:23;102301.76;;;1.50;68.55
51259;BME280;37327;54.254;18.504;2023-02-28T16:52:40;102312.73;;;1.44;68.75
51259;BME280;37327;54.254;18.504;2023-02-28T16:55:58;102306.87;;;1.37;68.93
51259;BME280;37327;54.254;18.504;2023-02-28T16:59:24;102302.25;;;1.24;69.25
51259;BME280;37327;54.254;18.504;2023-02-28T17:02:42;102303.65;;;1.13;69.61
51259;BME280;37327;54.254;18.504;2023-02-28T17:06:00;102302.15;;;1.08;69.81
51259;BME280;37327;54.254;18.504;2023-02-28T17:09:20;102311.29;;;1.02;70.04
51259;BME280;37327;54.254;18.504;2023-02-28T17:12:38;102313.17;;;1.00;70.19
51259;BME280;37327;54.254;18.504;2023-02-28T17:15:55;102301.82;;;0.96;70.42
51259;BME280;37327;54.254;18.504;2023-02-28T17:19:15;102301.88;;;0.95;70.69
51259;BME280;37327;54.254;18.504;2023-02-28T17:22:32;102298.51;;;0.91;70.85
51259;BME280;37327;54.254;18.504;2023-02-28T17:25:50;102300.45;;;0.88;71.03
51259;BME280;37327;54.254;18.504;2023-02-28T17:29:16;102296.22;;;0.84;71.34
51259;BME280;37327;54.254;18.504;2023-02-28T17:32:34;102296.40;;;0.81;71.44
51259;BME280;37327;54.254;18.504;2023-02-28T17:35:51;102302.80;;;0.76;71.73
51259;BME280;37327;54.254;18.504;2023-02-28T17:39:11;102301.22;;;0.72;71.87
51259;BME280;37327;54.254;18.504;2023-02-28T17:42:31;102305.72;;;0.70;72.07
51259;BME280;37327;54.254;18.504;2023-02-28T17:45:48;102308.48;;;0.69;72.12
51259;BME280;37327;54.254;18.504;2023-02-28T17:49:05;102312.92;;;0.68;72.16
51259;BME280;37327;54.254;18.504;2023-02-28T17:52:22;102314.79;;;0.66;72.23
51259;BME280;37327;54.254;18.504;2023-02-28T17:55:40;102305.11;;;0.65;72.38
51259;BME280;37327;54.254;18.504;2023-02-28T17:58:57;102296.35;;;0.63;72.91
51259;BME280;37327;54.254;18.504;2023-02-28T18:02:15;102294.66;;;0.61;72.94
51259;BME280;37327;54.254;18.504;2023-02-28T18:05:33;102299.13;;;0.60;72.90
51259;BME280;37327;54.254;18.504;2023-02-28T18:08:52;102295.69;;;0.58;72.94
51259;BME280;37327;54.254;18.504;2023-02-28T18:12:10;102301.18;;;0.55;72.96
51259;BME280;37327;54.254;18.504;2023-02-28T18:15:27;102294.96;;;0.54;72.77
51259;BME280;37327;54.254;18.504;2023-02-28T18:18:45;102301.30;;;0.52;72.80
51259;BME280;37327;54.254;18.504;2023-02-28T18:22:02;102308.48;;;0.50;72.75
51259;BME280;37327;54.254;18.504;2023-02-28T18:25:19;102312.07;;;0.49;72.84
51259;BME280;37327;54.254;18.504;2023-02-28T18:28:39;102308.78;;;0.44;73.66
51259;BME280;37327;54.254;18.504;2023-02-28T18:32:00;102319.54;;;0.41;73.54
51259;BME280;37327;54.254;18.504;2023-02-28T18:35:19;102317.90;;;0.38;73.69
51259;BME280;37327;54.254;18.504;2023-02-28T18:38:48;102323.44;;;0.33;74.08
51259;BME280;37327;54.254;18.504;2023-02-28T18:42:06;102324.42;;;0.31;74.19
51259;BME280;37327;54.254;18.504;2023-02-28T18:45:24;102326.28;;;0.29;74.30
51259;BME280;37327;54.254;18.504;2023-02-28T18:48:44;102315.72;;;0.27;74.32
51259;BME280;37327;54.254;18.504;2023-02-28T18:52:02;102314.87;;;0.27;74.21
51259;BME280;37327;54.254;18.504;2023-02-28T18:55:19;102322.05;;;0.25;74.61
51259;BME280;37327;54.254;18.504;2023-02-28T18:58:38;102316.80;;;0.23;74.76
51259;BME280;37327;54.254;18.504;2023-02-28T19:01:56;102311.65;;;0.20;75.16
51259;BME280;37327;54.254;18.504;2023-02-28T19:05:14;102301.02;;;0.20;75.20
51259;BME280;37327;54.254;18.504;2023-02-28T19:08:31;102310.86;;;0.18;75.04
51259;BME280;37327;54.254;18.504;2023-02-28T19:11:48;102320.69;;;0.16;74.99
51259;BME280;37327;54.254;18.504;2023-02-28T19:15:06;102319.96;;;0.12;74.71
51259;BME280;37327;54.254;18.504;2023-02-28T19:18:24;102318.39;;;0.08;74.93
51259;BME280;37327;54.254;18.504;2023-02-28T19:21:41;102322.90;;;0.06;74.95
51259;BME280;37327;54.254;18.504;2023-02-28T19:24:58;102317.78;;;0.02;74.74
51259;BME280;37327;54.254;18.504;2023-02-28T19:28:15;102309.81;;;0.02;74.92
51259;BME280;37327;54.254;18.504;2023-02-28T19:31:33;102310.77;;;0.01;75.19
51259;BME280;37327;54.254;18.504;2023-02-28T19:34:50;102303.70;;;-0.01;75.29
51259;BME280;37327;54.254;18.504;2023-02-28T19:38:08;102314.34;;;-0.01;75.91
51259;BME280;37327;54.254;18.504;2023-02-28T19:41:25;102307.44;;;-0.05;76.37
51259;BME280;37327;54.254;18.504;2023-02-28T19:44:43;102325.30;;;-0.08;76.57
51259;BME280;37327;54.254;18.504;2023-02-28T19:48:01;102329.70;;;-0.07;76.64
51259;BME280;37327;54.254;18.504;2023-02-28T19:51:18;102323.53;;;-0.08;77.03
51259;BME280;37327;54.254;18.504;2023-02-28T19:54:35;102326.24;;;-0.09;77.40
51259;BME280;37327;54.254;18.504;2023-02-28T19:57:53;102328.11;;;-0.11;77.93
51259;BME280;37327;54.254;18.504;2023-02-28T20:01:15;102343.09;;;-0.10;78.44
51259;BME280;37327;54.254;18.504;2023-02-28T20:04:33;102326.30;;;-0.11;78.82
51259;BME280;37327;54.254;18.504;2023-02-28T20:07:50;102324.51;;;-0.10;79.23
51259;BME280;37327;54.254;18.504;2023-02-28T20:11:11;102331.61;;;-0.11;79.56
51259;BME280;37327;54.254;18.504;2023-02-28T20:14:28;102323.65;;;-0.11;80.08
51259;BME280;37327;54.254;18.504;2023-02-28T20:17:45;102320.08;;;-0.10;80.62
51259;BME280;37327;54.254;18.504;2023-02-28T20:21:03;102310.37;;;-0.11;80.81
51259;BME280;37327;54.254;18.504;2023-02-28T20:24:20;102318.34;;;-0.11;81.21
51259;BME280;37327;54.254;18.504;2023-02-28T20:27:41;102312.17;;;-0.11;81.41
51259;BME280;37327;54.254;18.504;2023-02-28T20:30:59;102305.98;;;-0.12;81.90
51259;BME280;37327;54.254;18.504;2023-02-28T20:34:16;102307.72;;;-0.11;82.17